createdAt,value
2018-04-01T00:00:50.936Z,48.3
2018-04-01T00:01:52.551Z,48.2
2018-04-01T00:02:54.212Z,47.4
2018-04-01T00:03:56.039Z,48.1
2018-04-01T00:04:57.725Z,47.3
2018-04-01T00:05:59.491Z,49.2
2018-04-01T00:07:01.206Z,49.1
2018-04-01T00:08:02.825Z,49.1
2018-04-01T00:09:04.590Z,47.8
2018-04-01T00:10:06.280Z,46.6
2018-04-01T00:11:07.889Z,45.9
2018-04-01T00:12:09.695Z,45.7
2018-04-01T00:13:11.306Z,45.6
2018-04-01T00:14:13.152Z,45.2
2018-04-01T00:15:14.768Z,45.2
2018-04-01T00:16:16.375Z,44.3
2018-04-01T00:17:17.982Z,43.5
2018-04-01T00:18:19.598Z,44.1
2018-04-01T00:19:21.202Z,44.2
2018-04-01T00:20:22.809Z,44.1
2018-04-01T00:21:24.412Z,44.5
2018-04-01T00:22:26.023Z,44.4
2018-04-01T00:23:27.628Z,44.9
2018-04-01T00:24:29.238Z,45.3
2018-04-01T00:25:30.853Z,45.6
2018-04-01T00:26:32.449Z,45.3
2018-04-01T00:27:34.089Z,45.5
2018-04-01T00:28:35.664Z,46.5
2018-04-01T00:29:37.272Z,47.5
2018-04-01T00:30:38.885Z,47.0
2018-04-01T00:31:40.492Z,47.5
2018-04-01T00:32:42.104Z,47.0
2018-04-01T00:33:43.718Z,47.3
2018-04-01T00:34:45.317Z,47.3
2018-04-01T00:35:46.928Z,47.5
2018-04-01T00:36:48.532Z,47.6
2018-04-01T00:37:50.142Z,47.5
2018-04-01T00:38:51.750Z,46.4
2018-04-01T00:39:53.358Z,46.5
2018-04-01T00:40:54.968Z,46.3
2018-04-01T00:41:56.573Z,46.1
2018-04-01T00:42:58.192Z,45.4
2018-04-01T00:43:59.803Z,45.5
2018-04-01T00:45:01.415Z,45.8
2018-04-01T00:46:03.041Z,46.1
2018-04-01T00:47:04.631Z,46.5
2018-04-01T00:48:06.240Z,46.2
2018-04-01T00:49:07.846Z,45.5
2018-04-01T00:50:09.456Z,45.9
2018-04-01T00:51:11.062Z,45.3
2018-04-01T00:52:12.670Z,45.2
2018-04-01T00:53:14.284Z,45.4
2018-04-01T00:54:15.891Z,44.9
2018-04-01T00:55:17.501Z,44.7
2018-04-01T00:56:19.112Z,44.3
2018-04-01T00:57:20.721Z,44.3
2018-04-01T00:58:22.326Z,44.4
2018-04-01T00:59:23.940Z,44.5
2018-04-01T01:00:25.549Z,44.2
2018-04-01T01:01:27.156Z,44.4
2018-04-01T01:02:28.760Z,44.5
2018-04-01T01:03:30.370Z,44.5
2018-04-01T01:04:31.988Z,44.5
2018-04-01T01:05:33.601Z,45.1
2018-04-01T01:06:35.207Z,44.4
2018-04-01T01:07:36.822Z,45.1
2018-04-01T01:08:38.433Z,44.9
2018-04-01T01:09:40.036Z,44.9
2018-04-01T01:10:41.642Z,45.3
2018-04-01T01:11:43.251Z,45.3
2018-04-01T01:12:44.857Z,44.9
2018-04-01T01:13:46.463Z,44.9
2018-04-01T01:14:48.068Z,45.1
2018-04-01T01:15:49.680Z,45.4
2018-04-01T01:16:51.290Z,45.3
2018-04-01T01:17:52.894Z,45.2
2018-04-01T01:18:54.506Z,44.6
2018-04-01T01:19:56.107Z,44.0
2018-04-01T01:20:57.718Z,44.3
2018-04-01T01:21:59.323Z,44.5
2018-04-01T01:23:00.935Z,45.0
2018-04-01T01:24:02.543Z,45.1
2018-04-01T01:25:04.150Z,45.4
2018-04-01T01:26:05.755Z,45.8
2018-04-01T01:27:07.367Z,45.8
2018-04-01T01:28:08.977Z,45.9
2018-04-01T01:29:10.585Z,46.5
2018-04-01T01:30:12.196Z,46.7
2018-04-01T01:31:13.804Z,46.9
2018-04-01T01:32:15.406Z,46.5
2018-04-01T01:33:17.009Z,46.4
2018-04-01T01:34:18.622Z,46.5
2018-04-01T01:35:20.230Z,46.3
2018-04-01T01:36:21.834Z,46.5
2018-04-01T01:37:23.447Z,46.7
2018-04-01T01:38:25.058Z,46.4
2018-04-01T01:39:26.664Z,45.8
2018-04-01T01:40:28.266Z,45.8
2018-04-01T01:41:29.873Z,46.0
2018-04-01T01:42:31.484Z,46.4
2018-04-01T01:43:33.096Z,46.8
2018-04-01T01:44:34.707Z,46.5
2018-04-01T01:45:36.310Z,46.4
2018-04-01T01:46:37.925Z,46.6
2018-04-01T01:47:39.530Z,47.4
2018-04-01T01:48:41.135Z,47.1
2018-04-01T01:49:42.749Z,46.9
2018-04-01T01:50:44.352Z,46.7
2018-04-01T01:51:45.966Z,46.5
2018-04-01T01:52:47.565Z,45.9
2018-04-01T01:53:49.174Z,45.6
2018-04-01T01:54:50.777Z,46.0
2018-04-01T01:55:52.388Z,45.7
2018-04-01T01:56:53.994Z,46.1
2018-04-01T01:57:55.606Z,46.0
2018-04-01T01:58:57.216Z,46.2
2018-04-01T01:59:58.818Z,46.5
2018-04-01T02:01:00.429Z,47.8
2018-04-01T02:02:02.033Z,48.0
2018-04-01T02:03:03.642Z,48.4
2018-04-01T02:04:05.253Z,47.4
2018-04-01T02:05:06.863Z,47.5
2018-04-01T02:06:08.466Z,47.3
2018-04-01T02:07:10.075Z,47.4
2018-04-01T02:08:11.678Z,47.7
2018-04-01T02:09:13.290Z,47.3
2018-04-01T02:10:14.896Z,47.7
2018-04-01T02:11:16.509Z,47.5
2018-04-01T02:12:18.112Z,47.3
2018-04-01T02:13:19.724Z,47.3
2018-04-01T02:14:21.327Z,48.1
2018-04-01T02:15:22.936Z,48.2
2018-04-01T02:16:24.545Z,47.4
2018-04-01T02:17:26.147Z,48.2
2018-04-01T02:18:27.753Z,47.6
2018-04-01T02:19:29.357Z,47.9
2018-04-01T02:20:30.965Z,47.9
2018-04-01T02:21:32.568Z,47.3
2018-04-01T02:22:34.180Z,47.7
2018-04-01T02:23:35.784Z,47.5
2018-04-01T02:24:37.396Z,47.9
2018-04-01T02:25:39.000Z,48.7
2018-04-01T02:26:40.610Z,49.1
2018-04-01T02:27:42.215Z,48.6
2018-04-01T02:28:43.824Z,48.7
2018-04-01T02:29:45.431Z,49.0
2018-04-01T02:30:47.039Z,49.3
2018-04-01T02:31:48.642Z,49.1
2018-04-01T02:32:50.253Z,48.5
2018-04-01T02:33:51.865Z,48.7
2018-04-01T02:34:53.478Z,48.1
2018-04-01T02:35:55.083Z,47.9
2018-04-01T02:36:56.697Z,48.0
2018-04-01T02:37:58.296Z,47.8
2018-04-01T02:38:59.902Z,47.9
2018-04-01T02:40:01.516Z,48.0
2018-04-01T02:41:03.125Z,48.8
2018-04-01T02:42:04.730Z,48.8
2018-04-01T02:43:06.338Z,48.6
2018-04-01T02:44:07.949Z,49.1
2018-04-01T02:45:09.557Z,49.0
2018-04-01T02:46:11.157Z,48.7
2018-04-01T02:47:12.770Z,48.7
2018-04-01T02:48:14.373Z,48.2
2018-04-01T02:49:15.984Z,48.5
2018-04-01T02:50:17.584Z,48.7
2018-04-01T02:51:19.191Z,48.3
2018-04-01T02:52:20.805Z,48.8
2018-04-01T02:53:22.403Z,48.5
2018-04-01T02:54:24.017Z,48.2
2018-04-01T02:55:25.627Z,48.9
2018-04-01T02:56:27.233Z,49.2
2018-04-01T02:57:28.843Z,49.3
2018-04-01T02:58:30.446Z,49.4
2018-04-01T02:59:32.053Z,49.5
2018-04-01T03:00:33.656Z,49.4
2018-04-01T03:01:35.266Z,49.3
2018-04-01T03:02:36.879Z,49.4
2018-04-01T03:03:38.993Z,49.8
2018-04-01T03:04:40.582Z,49.5
2018-04-01T03:05:42.186Z,49.2
2018-04-01T03:06:43.792Z,49.1
2018-04-01T03:07:45.398Z,49.2
2018-04-01T03:08:47.007Z,49.3
2018-04-01T03:09:48.611Z,48.5
2018-04-01T03:10:50.217Z,47.9
2018-04-01T03:11:51.816Z,47.7
2018-04-01T03:12:53.426Z,48.0
2018-04-01T03:13:55.030Z,49.0
2018-04-01T03:14:56.639Z,48.2
2018-04-01T03:15:58.245Z,48.0
2018-04-01T03:16:59.855Z,46.9
2018-04-01T03:18:01.460Z,47.0
2018-04-01T03:19:03.065Z,46.6
2018-04-01T03:20:04.675Z,46.4
2018-04-01T03:21:06.277Z,45.7
2018-04-01T03:22:07.887Z,45.4
2018-04-01T03:23:09.495Z,45.4
2018-04-01T03:24:11.100Z,45.5
2018-04-01T03:25:12.710Z,45.5
2018-04-01T03:26:14.315Z,45.3
2018-04-01T03:27:15.918Z,44.1
2018-04-01T03:28:17.526Z,44.2
2018-04-01T03:29:19.133Z,44.5
2018-04-01T03:30:20.739Z,44.5
2018-04-01T03:31:22.349Z,44.4
2018-04-01T03:32:23.949Z,44.7
2018-04-01T03:33:25.557Z,44.5
2018-04-01T03:34:27.158Z,44.2
2018-04-01T03:35:28.765Z,44.5
2018-04-01T03:36:30.367Z,44.2
2018-04-01T03:37:31.977Z,44.0
2018-04-01T03:38:33.582Z,44.1
2018-04-01T03:39:35.195Z,44.2
2018-04-01T03:40:36.798Z,44.4
2018-04-01T03:41:38.407Z,44.0
2018-04-01T03:42:40.008Z,44.2
2018-04-01T03:43:41.617Z,44.4
2018-04-01T03:44:43.225Z,43.5
2018-04-01T03:45:44.829Z,43.5
2018-04-01T03:46:46.435Z,43.4
2018-04-01T03:47:48.043Z,43.5
2018-04-01T03:48:49.655Z,43.0
2018-04-01T03:49:51.255Z,42.5
2018-04-01T03:50:52.859Z,42.2
2018-04-01T03:51:54.469Z,41.6
2018-04-01T03:52:56.079Z,41.1
2018-04-01T03:53:57.681Z,41.3
2018-04-01T03:54:59.286Z,41.0
2018-04-01T03:56:00.894Z,40.8
2018-04-01T03:57:02.500Z,40.5
2018-04-01T03:58:04.104Z,40.2
2018-04-01T03:59:05.709Z,39.9
2018-04-01T04:00:07.319Z,40.1
2018-04-01T04:01:08.931Z,40.0
2018-04-01T04:02:10.528Z,40.3
2018-04-01T04:03:12.134Z,40.3
2018-04-01T04:04:13.744Z,40.7
2018-04-01T04:05:15.351Z,40.5
2018-04-01T04:06:16.952Z,40.8
2018-04-01T04:07:18.558Z,41.3
2018-04-01T04:08:20.171Z,41.1
2018-04-01T04:09:21.776Z,41.3
2018-04-01T04:10:23.384Z,41.7
2018-04-01T04:11:24.990Z,41.5
2018-04-01T04:12:26.593Z,42.2
2018-04-01T04:13:28.203Z,42.4
2018-04-01T04:14:29.811Z,42.4
2018-04-01T04:15:31.416Z,42.9
2018-04-01T04:16:33.022Z,43.3
2018-04-01T04:17:34.656Z,43.7
2018-04-01T04:18:36.236Z,43.7
2018-04-01T04:19:37.835Z,43.5
2018-04-01T04:20:39.444Z,43.5
2018-04-01T04:21:41.055Z,43.7
2018-04-01T04:22:42.659Z,43.5
2018-04-01T04:23:44.262Z,43.7
2018-04-01T04:24:45.871Z,44.4
2018-04-01T04:25:47.475Z,45.6
2018-04-01T04:26:49.085Z,45.5
2018-04-01T04:27:50.694Z,45.5
2018-04-01T04:28:52.298Z,46.3
2018-04-01T04:29:53.901Z,46.4
2018-04-01T04:30:55.510Z,46.2
2018-04-01T04:31:57.114Z,46.4
2018-04-01T04:32:58.719Z,47.6
2018-04-01T04:34:00.325Z,47.6
2018-04-01T04:35:01.936Z,48.6
2018-04-01T04:36:03.540Z,49.5
2018-04-01T04:37:05.152Z,50.2
2018-04-01T04:38:06.752Z,52.5
2018-04-01T04:39:08.360Z,52.6
2018-04-01T04:40:09.963Z,51.4
2018-04-01T04:41:11.574Z,51.5
2018-04-01T04:42:13.186Z,51.4
2018-04-01T04:43:14.790Z,52.8
2018-04-01T04:44:16.401Z,51.5
2018-04-01T04:45:18.011Z,51.3
2018-04-01T04:46:19.614Z,51.7
2018-04-01T04:47:21.220Z,51.4
2018-04-01T04:48:22.823Z,51.0
2018-04-01T04:49:24.437Z,50.8
2018-04-01T04:50:26.047Z,50.4
2018-04-01T04:51:27.652Z,50.6
2018-04-01T04:52:29.257Z,50.6
2018-04-01T04:53:30.871Z,50.8
2018-04-01T04:54:32.480Z,54.5
2018-04-01T04:55:34.086Z,55.9
2018-04-01T04:56:35.693Z,57.5
2018-04-01T04:57:37.307Z,56.6
2018-04-01T04:58:38.912Z,56.5
2018-04-01T04:59:40.533Z,57.2
2018-04-01T05:00:42.130Z,57.6
2018-04-01T05:01:43.736Z,55.8
2018-04-01T05:02:45.340Z,59.4
2018-04-01T05:03:46.951Z,61.7
2018-04-01T05:04:48.568Z,61.4
2018-04-01T05:05:50.169Z,63.2
2018-04-01T05:06:51.783Z,63.6
2018-04-01T05:07:53.388Z,62.1
2018-04-01T05:08:54.996Z,62.7
2018-04-01T05:09:56.610Z,61.2
2018-04-01T05:10:58.220Z,62.1
2018-04-01T05:11:59.830Z,62.3
2018-04-01T05:13:01.438Z,63.3
2018-04-01T05:14:03.051Z,61.9
2018-04-01T05:15:04.661Z,61.8
2018-04-01T05:16:06.271Z,61.2
2018-04-01T05:17:07.887Z,61.9
2018-04-01T05:18:09.486Z,62.0
2018-04-01T05:19:11.104Z,61.4
2018-04-01T05:20:12.712Z,61.1
2018-04-01T05:21:14.320Z,60.9
2018-04-01T05:22:15.932Z,60.8
2018-04-01T05:23:17.535Z,61.2
2018-04-01T05:24:19.148Z,60.9
2018-04-01T05:25:20.755Z,59.5
2018-04-01T05:26:22.372Z,59.4
2018-04-01T05:27:24.762Z,59.3
2018-04-01T05:28:25.546Z,60.0
2018-04-01T05:29:27.152Z,58.7
2018-04-01T05:30:28.764Z,58.4
2018-04-01T05:31:30.377Z,57.9
2018-04-01T05:32:31.984Z,55.8
2018-04-01T05:33:33.603Z,55.6
2018-04-01T05:34:35.212Z,56.6
2018-04-01T05:35:36.819Z,60.0
2018-04-01T05:36:38.424Z,58.2
2018-04-01T05:37:40.037Z,56.4
2018-04-01T05:38:41.645Z,59.1
2018-04-01T05:39:43.258Z,57.8
2018-04-01T05:40:44.865Z,57.2
2018-04-01T05:41:46.478Z,57.1
2018-04-01T05:42:48.084Z,55.6
2018-04-01T05:43:49.700Z,55.2
2018-04-01T05:44:51.305Z,55.7
2018-04-01T05:45:52.920Z,53.7
2018-04-01T05:46:54.524Z,54.5
2018-04-01T05:47:56.133Z,53.2
2018-04-01T05:48:57.754Z,51.6
2018-04-01T05:49:59.358Z,50.8
2018-04-01T05:51:00.969Z,51.2
2018-04-01T05:52:02.571Z,51.0
2018-04-01T05:53:04.181Z,50.7
2018-04-01T05:54:05.790Z,50.8
2018-04-01T05:55:07.398Z,50.9
2018-04-01T05:56:09.012Z,51.0
2018-04-01T05:57:10.621Z,51.8
2018-04-01T05:58:12.227Z,51.8
2018-04-01T05:59:13.838Z,51.6
2018-04-01T06:00:15.442Z,51.0
2018-04-01T06:01:17.055Z,50.1
2018-04-01T06:02:18.664Z,49.8
2018-04-01T06:03:20.278Z,50.7
2018-04-01T06:04:21.890Z,51.1
2018-04-01T06:05:23.494Z,50.5
2018-04-01T06:06:25.109Z,49.9
2018-04-01T06:07:26.717Z,49.7
2018-04-01T06:08:28.330Z,49.5
2018-04-01T06:09:29.954Z,49.3
2018-04-01T06:10:31.561Z,49.3
2018-04-01T06:11:33.164Z,50.5
2018-04-01T06:12:34.774Z,50.5
2018-04-01T06:13:36.380Z,50.9
2018-04-01T06:14:37.992Z,51.0
2018-04-01T06:15:39.600Z,50.9
2018-04-01T06:16:41.216Z,50.6
2018-04-01T06:17:42.822Z,50.8
2018-04-01T06:18:44.433Z,50.7
2018-04-01T06:19:46.037Z,52.2
2018-04-01T06:20:47.657Z,51.6
2018-04-01T06:21:49.259Z,51.6
2018-04-01T06:22:50.869Z,49.8
2018-04-01T06:23:52.483Z,49.2
2018-04-01T06:24:54.098Z,50.7
2018-04-01T06:25:55.710Z,50.1
2018-04-01T06:26:57.320Z,50.9
2018-04-01T06:27:58.931Z,49.8
2018-04-01T06:29:00.542Z,50.0
2018-04-01T06:30:02.156Z,49.5
2018-04-01T06:31:03.773Z,48.8
2018-04-01T06:32:05.377Z,49.5
2018-04-01T06:33:06.985Z,48.6
2018-04-01T06:34:08.599Z,47.9
2018-04-01T06:35:10.214Z,48.7
2018-04-01T06:36:11.821Z,49.6
2018-04-01T06:37:13.435Z,48.8
2018-04-01T06:38:15.043Z,49.3
2018-04-01T06:39:16.659Z,49.4
2018-04-01T06:40:18.263Z,49.0
2018-04-01T06:41:19.879Z,49.3
2018-04-01T06:42:21.489Z,48.9
2018-04-01T06:43:23.099Z,48.9
2018-04-01T06:44:24.768Z,48.7
2018-04-01T06:45:27.188Z,48.1
2018-04-01T06:46:28.741Z,47.3
2018-04-01T06:47:30.354Z,48.6
2018-04-01T06:48:31.963Z,48.6
2018-04-01T06:49:33.579Z,49.2
2018-04-01T06:50:35.188Z,50.0
2018-04-01T06:51:36.805Z,50.4
2018-04-01T06:52:38.412Z,51.1
2018-04-01T06:53:40.028Z,50.6
2018-04-01T06:54:41.635Z,51.0
2018-04-01T06:55:43.252Z,51.0
2018-04-01T06:56:44.862Z,50.3
2018-04-01T06:57:46.471Z,49.0
2018-04-01T06:58:48.084Z,49.2
2018-04-01T06:59:49.694Z,49.1
2018-04-01T07:00:51.302Z,48.9
2018-04-01T07:01:52.908Z,48.7
2018-04-01T07:02:54.521Z,48.2
2018-04-01T07:03:56.127Z,47.5
2018-04-01T07:04:57.738Z,47.3
2018-04-01T07:05:59.344Z,46.5
2018-04-01T07:07:00.957Z,46.1
2018-04-01T07:08:02.564Z,46.2
2018-04-01T07:09:04.205Z,46.0
2018-04-01T07:10:05.814Z,45.8
2018-04-01T07:11:07.419Z,45.4
2018-04-01T07:12:09.051Z,45.2
2018-04-01T07:13:10.637Z,45.3
2018-04-01T07:14:12.266Z,45.5
2018-04-01T07:15:13.875Z,45.3
2018-04-01T07:16:15.482Z,46.3
2018-04-01T07:17:17.230Z,47.0
2018-04-01T07:18:18.834Z,47.3
2018-04-01T07:19:20.439Z,46.3
2018-04-01T07:20:22.050Z,46.8
2018-04-01T07:21:23.659Z,47.5
2018-04-01T07:22:25.274Z,47.4
2018-04-01T07:23:26.876Z,47.1
2018-04-01T07:24:28.749Z,47.0
2018-04-01T07:25:30.418Z,46.2
2018-04-01T07:26:32.010Z,46.5
2018-04-01T07:27:33.620Z,46.1
2018-04-01T07:28:35.228Z,45.8
2018-04-01T07:29:36.842Z,46.3
2018-04-01T07:30:38.448Z,46.0
2018-04-01T07:31:40.062Z,46.2
2018-04-01T07:32:41.674Z,45.3
2018-04-01T07:33:43.286Z,45.2
2018-04-01T07:34:44.898Z,44.8
2018-04-01T07:35:46.511Z,45.1
2018-04-01T07:36:48.123Z,44.9
2018-04-01T07:37:49.730Z,45.4
2018-04-01T07:38:51.336Z,46.1
2018-04-01T07:39:52.952Z,44.6
2018-04-01T07:40:54.560Z,45.0
2018-04-01T07:41:56.164Z,45.4
2018-04-01T07:42:57.782Z,45.4
2018-04-01T07:43:59.400Z,45.2
2018-04-01T07:45:01.007Z,44.3
2018-04-01T07:46:03.497Z,44.0
2018-04-01T07:47:05.102Z,45.0
2018-04-01T07:48:06.708Z,45.4
2018-04-01T07:49:08.323Z,45.4
2018-04-01T07:50:09.977Z,45.7
2018-04-01T07:51:11.578Z,45.2
2018-04-01T07:52:13.184Z,45.1
2018-04-01T07:53:14.792Z,46.0
2018-04-01T07:54:16.403Z,46.0
2018-04-01T07:55:18.014Z,46.1
2018-04-01T07:56:19.620Z,45.4
2018-04-01T07:57:21.231Z,45.4
2018-04-01T07:58:22.842Z,45.4
2018-04-01T07:59:24.454Z,45.2
2018-04-01T08:00:26.059Z,44.8
2018-04-01T08:01:27.671Z,44.0
2018-04-01T08:02:29.278Z,44.3
2018-04-01T08:03:30.890Z,45.2
2018-04-01T08:04:32.497Z,44.8
2018-04-01T08:05:34.108Z,44.7
2018-04-01T08:06:35.721Z,44.0
2018-04-01T08:07:37.329Z,44.4
2018-04-01T08:08:38.960Z,45.5
2018-04-01T08:09:40.568Z,45.6
2018-04-01T08:10:42.227Z,45.8
2018-04-01T08:11:43.832Z,46.3
2018-04-01T08:12:45.450Z,46.7
2018-04-01T08:13:47.052Z,45.7
2018-04-01T08:14:48.684Z,46.3
2018-04-01T08:15:50.295Z,45.1
2018-04-01T08:16:52.999Z,44.9
2018-04-01T08:17:56.266Z,45.2
2018-04-01T08:19:01.792Z,44.8
2018-04-01T08:20:04.559Z,44.2
2018-04-01T08:21:07.112Z,44.6
2018-04-01T08:22:11.331Z,45.1
2018-04-01T08:23:13.934Z,45.2
2018-04-01T08:24:15.715Z,45.4
2018-04-01T08:25:19.430Z,45.1
2018-04-01T08:26:24.140Z,45.2
2018-04-01T08:27:26.408Z,45.2
2018-04-01T08:28:31.030Z,44.8
2018-04-01T08:29:35.204Z,44.0
2018-04-01T08:30:38.086Z,44.6
2018-04-01T08:31:43.308Z,44.2
2018-04-01T08:32:46.236Z,43.9
2018-04-01T08:33:53.873Z,44.2
2018-04-01T08:34:55.600Z,43.9
2018-04-01T08:36:01.492Z,43.9
2018-04-01T08:37:06.788Z,43.9
2018-04-01T08:38:11.363Z,44.3
2018-04-01T08:39:17.163Z,44.2
2018-04-01T08:40:22.392Z,43.7
2018-04-01T08:41:26.027Z,43.9
2018-04-01T08:42:28.367Z,43.6
2018-04-01T08:43:34.882Z,43.3
2018-04-01T08:44:39.310Z,43.4
2018-04-01T08:45:42.944Z,43.5
2018-04-01T08:46:49.976Z,43.5
2018-04-01T08:47:54.122Z,43.0
2018-04-01T08:48:57.679Z,43.5
2018-04-01T08:50:00.652Z,43.5
2018-04-01T08:51:06.509Z,43.0
2018-04-01T08:52:11.518Z,43.5
2018-04-01T08:53:14.602Z,43.5
2018-04-01T08:54:16.679Z,43.2
2018-04-01T08:55:22.907Z,43.3
2018-04-01T08:56:26.706Z,43.4
2018-04-01T08:57:34.333Z,42.8
2018-04-01T08:58:39.718Z,42.9
2018-04-01T08:59:41.676Z,43.4
2018-04-01T09:00:43.288Z,43.4
2018-04-01T09:01:45.537Z,43.5
2018-04-01T09:02:50.194Z,43.4
2018-04-01T09:03:56.536Z,43.4
2018-04-01T09:05:00.359Z,42.8
2018-04-01T09:06:07.989Z,42.9
2018-04-01T09:07:11.548Z,42.5
2018-04-01T09:08:14.565Z,42.2
2018-04-01T09:09:17.855Z,42.2
2018-04-01T09:10:22.313Z,42.3
2018-04-01T09:11:28.510Z,41.9
2018-04-01T09:12:31.835Z,42.7
2018-04-01T09:13:36.286Z,42.4
2018-04-01T09:14:38.626Z,42.8
2018-04-01T09:15:42.774Z,43.4
2018-04-01T09:16:46.716Z,43.3
2018-04-01T09:17:49.626Z,44.6
2018-04-01T09:18:55.000Z,45.3
2018-04-01T09:19:57.926Z,45.2
2018-04-01T09:21:04.742Z,44.2
2018-04-01T09:22:10.922Z,44.5
2018-04-01T09:23:17.241Z,45.1
2018-04-01T09:24:21.891Z,44.1
2018-04-01T09:25:28.083Z,45.5
2018-04-01T09:26:30.572Z,46.3
2018-04-01T09:27:34.007Z,46.1
2018-04-01T09:28:36.451Z,45.4
2018-04-01T09:29:43.704Z,45.2
2018-04-01T09:30:48.157Z,44.0
2018-04-01T09:31:49.764Z,44.3
2018-04-01T09:32:52.838Z,45.0
2018-04-01T09:33:59.894Z,44.2
2018-04-01T09:35:05.411Z,44.4
2018-04-01T09:36:07.890Z,44.9
2018-04-01T09:37:12.706Z,44.5
2018-04-01T09:38:15.796Z,46.1
2018-04-01T09:39:23.285Z,46.6
2018-04-01T09:40:27.451Z,45.6
2018-04-01T09:41:32.292Z,45.0
2018-04-01T09:42:35.201Z,45.8
2018-04-01T09:43:39.107Z,45.6
2018-04-01T09:44:46.909Z,45.5
2018-04-01T09:45:52.899Z,45.8
2018-04-01T09:46:58.281Z,45.5
2018-04-01T09:48:00.615Z,46.0
2018-04-01T09:49:07.713Z,47.2
2018-04-01T09:50:09.943Z,46.5
2018-04-01T09:51:11.686Z,46.1
2018-04-01T09:52:18.373Z,46.0
2018-04-01T09:53:20.583Z,46.2
2018-04-01T09:54:27.827Z,46.0
2018-04-01T09:55:32.945Z,46.7
2018-04-01T09:56:36.766Z,47.1
2018-04-01T09:57:41.751Z,47.4
2018-04-01T09:58:47.854Z,47.4
2018-04-01T09:59:50.887Z,47.6
2018-04-01T10:00:58.276Z,47.8
2018-04-01T10:02:01.894Z,47.9
2018-04-01T10:03:06.678Z,47.6
2018-04-01T10:04:13.301Z,48.2
2018-04-01T10:05:18.488Z,48.3
2018-04-01T10:06:21.445Z,47.8
2018-04-01T10:07:28.394Z,48.6
2018-04-01T10:08:33.501Z,48.8
2018-04-01T10:09:41.018Z,48.6
2018-04-01T10:10:42.590Z,47.6
2018-04-01T10:11:44.201Z,48.2
2018-04-01T10:12:45.818Z,47.8
2018-04-01T10:13:47.442Z,48.9
2018-04-01T10:14:49.054Z,49.1
2018-04-01T10:15:50.675Z,48.7
2018-04-01T10:16:52.285Z,47.8
2018-04-01T10:17:53.906Z,49.2
2018-04-01T10:18:55.520Z,48.6
2018-04-01T10:19:58.806Z,47.8
2018-04-01T10:21:00.359Z,48.7
2018-04-01T10:22:01.982Z,49.2
2018-04-01T10:23:03.590Z,49.2
2018-04-01T10:24:05.229Z,48.7
2018-04-01T10:25:06.847Z,48.6
2018-04-01T10:26:08.464Z,48.7
2018-04-01T10:27:10.086Z,48.7
2018-04-01T10:28:11.705Z,48.6
2018-04-01T10:29:13.322Z,47.8
2018-04-01T10:30:14.945Z,48.1
2018-04-01T10:31:16.561Z,49.2
2018-04-01T10:32:18.175Z,48.9
2018-04-01T10:33:19.794Z,48.8
2018-04-01T10:34:21.413Z,47.9
2018-04-01T10:35:23.021Z,48.7
2018-04-01T10:36:24.634Z,48.7
2018-04-01T10:37:26.254Z,50.4
2018-04-01T10:38:27.878Z,49.7
2018-04-01T10:39:29.507Z,50.6
2018-04-01T10:40:31.136Z,50.8
2018-04-01T10:41:32.745Z,50.1
2018-04-01T10:42:34.359Z,48.9
2018-04-01T10:43:35.977Z,49.1
2018-04-01T10:44:37.587Z,49.0
2018-04-01T10:45:39.454Z,49.0
2018-04-01T10:46:41.073Z,50.2
2018-04-01T10:47:42.687Z,52.1
2018-04-01T10:48:44.308Z,52.1
2018-04-01T10:54:54.222Z,53.2
2018-04-01T10:55:55.841Z,53.4
2018-04-01T10:57:47.866Z,54.4
2018-04-01T10:58:49.485Z,53.8
2018-04-01T11:00:41.219Z,54.4
2018-04-01T11:01:42.836Z,54.5
2018-04-01T11:03:34.570Z,55.1
2018-04-01T11:04:36.164Z,53.8
2018-04-01T11:06:27.906Z,54.9
2018-04-01T11:07:29.510Z,55.2
2018-04-01T11:09:21.241Z,55.7
2018-04-01T11:10:22.892Z,55.8
2018-04-01T11:12:14.599Z,63.9
2018-04-01T11:13:16.389Z,60.3
2018-04-01T11:15:08.956Z,58.7
2018-04-01T11:16:10.012Z,61.1
2018-04-01T11:17:11.633Z,70.7
2018-04-01T11:18:13.495Z,68.1
2018-04-01T11:19:15.121Z,66.0
2018-04-01T11:20:16.741Z,67.2
2018-04-01T11:21:18.359Z,67.6
2018-04-01T11:22:19.982Z,71.5
2018-04-01T11:23:21.599Z,72.9
2018-04-01T11:24:23.221Z,68.9
2018-04-01T11:25:24.838Z,79.0
2018-04-01T11:26:26.462Z,79.2
2018-04-01T11:27:28.079Z,79.1
2018-04-01T11:28:29.699Z,79.7
2018-04-01T11:29:31.325Z,78.0
2018-04-01T11:30:32.943Z,83.8
2018-04-01T11:31:34.567Z,80.1
2018-04-01T11:32:36.180Z,82.5
2018-04-01T11:33:37.805Z,79.4
2018-04-01T11:34:39.418Z,81.8
2018-04-01T11:35:41.038Z,75.6
2018-04-01T11:36:42.658Z,74.8
2018-04-01T11:37:44.271Z,74.2
2018-04-01T11:38:45.889Z,76.7
2018-04-01T11:39:47.512Z,79.7
2018-04-01T11:40:49.125Z,74.6
2018-04-01T11:41:50.741Z,79.0
2018-04-01T11:42:52.363Z,75.9
2018-04-01T11:43:53.979Z,76.2
2018-04-01T11:44:55.598Z,74.2
2018-04-01T11:45:57.217Z,74.1
2018-04-01T11:46:58.838Z,74.9
2018-04-01T11:48:00.452Z,73.9
2018-04-01T11:49:02.067Z,72.5
2018-04-01T11:50:03.683Z,73.7
2018-04-01T11:51:05.962Z,70.7
2018-04-01T11:52:06.877Z,72.3
2018-04-01T11:53:08.491Z,71.2
2018-04-01T11:54:10.111Z,72.1
2018-04-01T11:55:11.728Z,71.2
2018-04-01T11:56:13.356Z,73.9
2018-04-01T11:57:14.982Z,74.5
2018-04-01T11:58:16.602Z,72.2
2018-04-01T11:59:18.218Z,71.5
2018-04-01T12:00:19.844Z,75.9
2018-04-01T12:01:21.453Z,75.0
2018-04-01T12:02:23.073Z,74.1
2018-04-01T12:03:24.688Z,71.6
2018-04-01T12:04:26.312Z,71.4
2018-04-01T12:05:27.934Z,73.2
2018-04-01T12:06:29.556Z,74.6
2018-04-01T12:07:31.169Z,75.5
2018-04-01T12:08:32.784Z,75.5
2018-04-01T12:09:34.408Z,77.4
2018-04-01T12:10:36.024Z,77.6
2018-04-01T12:11:37.647Z,76.1
2018-04-01T12:12:39.267Z,75.2
2018-04-01T12:13:40.885Z,75.1
2018-04-01T12:14:42.504Z,74.9
2018-04-01T12:15:44.120Z,81.8
2018-04-01T12:16:45.741Z,79.1
2018-04-01T12:17:47.366Z,77.1
2018-04-01T12:18:48.983Z,77.3
2018-04-01T12:19:50.610Z,77.3
2018-04-01T12:20:52.241Z,78.1
2018-04-01T12:21:53.845Z,81.9
2018-04-01T12:22:55.468Z,83.6
2018-04-01T12:23:57.083Z,80.5
2018-04-01T12:24:58.714Z,82.9
2018-04-01T12:26:00.327Z,80.6
2018-04-01T12:27:01.950Z,82.6
2018-04-01T12:28:03.571Z,81.0
2018-04-01T12:29:05.196Z,81.6
2018-04-01T12:30:06.812Z,82.2
2018-04-01T12:31:08.434Z,81.8
2018-04-01T12:32:10.047Z,80.1
2018-04-01T12:33:11.667Z,82.9
2018-04-01T12:34:13.287Z,81.8
2018-04-01T12:35:14.896Z,82.2
2018-04-01T12:36:16.513Z,82.7
2018-04-01T12:37:18.127Z,82.7
2018-04-01T12:38:19.745Z,78.9
2018-04-01T12:39:21.366Z,81.7
2018-04-01T12:40:22.986Z,81.8
2018-04-01T12:41:24.603Z,79.5
2018-04-01T12:42:26.223Z,79.4
2018-04-01T12:43:27.838Z,77.3
2018-04-01T12:44:29.453Z,79.0
2018-04-01T12:45:31.071Z,78.2
2018-04-01T12:46:32.683Z,76.6
2018-04-01T12:47:34.304Z,76.9
2018-04-01T12:48:35.917Z,75.9
2018-04-01T12:49:37.533Z,76.4
2018-04-01T12:50:39.149Z,75.9
2018-04-01T12:51:40.767Z,77.3
2018-04-01T12:52:42.377Z,77.8
2018-04-01T12:53:43.990Z,77.2
2018-04-01T12:54:45.606Z,74.6
2018-04-01T12:55:47.225Z,75.5
2018-04-01T12:56:48.837Z,72.6
2018-04-01T12:57:50.448Z,72.2
2018-04-01T12:58:52.070Z,72.7
2018-04-01T12:59:53.684Z,71.6
2018-04-01T13:00:55.303Z,73.4
2018-04-01T13:01:56.920Z,74.9
2018-04-01T13:02:58.532Z,74.7
2018-04-01T13:04:00.142Z,72.4
2018-04-01T13:05:01.760Z,73.0
2018-04-01T13:06:03.376Z,72.2
2018-04-01T13:07:04.988Z,72.7
2018-04-01T13:08:06.607Z,77.4
2018-04-01T13:09:08.219Z,75.1
2018-04-01T13:10:09.837Z,79.2
2018-04-01T13:11:11.458Z,78.7
2018-04-01T13:12:13.072Z,77.3
2018-04-01T13:13:14.690Z,79.1
2018-04-01T13:14:16.309Z,77.8
2018-04-01T13:15:17.923Z,78.3
2018-04-01T13:16:19.542Z,78.9
2018-04-01T13:17:21.155Z,78.0
2018-04-01T13:18:22.767Z,78.8
2018-04-01T13:19:24.386Z,78.6
2018-04-01T13:20:25.998Z,78.2
2018-04-01T13:21:27.617Z,80.7
2018-04-01T13:22:29.230Z,82.3
2018-04-01T13:23:31.348Z,79.7
2018-04-01T13:24:32.960Z,79.0
2018-04-01T13:25:34.570Z,80.8
2018-04-01T13:26:36.189Z,79.6
2018-04-01T13:27:37.800Z,79.5
2018-04-01T13:28:39.417Z,79.8
2018-04-01T13:29:41.032Z,79.9
2018-04-01T13:30:42.652Z,79.0
2018-04-01T13:31:44.264Z,77.2
2018-04-01T13:32:45.885Z,77.4
2018-04-01T13:33:47.496Z,79.8
2018-04-01T13:34:49.108Z,77.7
2018-04-01T13:35:50.726Z,78.8
2018-04-01T13:36:52.343Z,77.7
2018-04-01T13:37:53.962Z,78.1
2018-04-01T13:38:55.575Z,78.7
2018-04-01T13:39:57.192Z,79.7
2018-04-01T13:40:58.813Z,79.6
2018-04-01T13:42:00.431Z,79.9
2018-04-01T13:43:02.041Z,78.7
2018-04-01T13:44:03.657Z,78.7
2018-04-01T13:45:05.273Z,78.9
2018-04-01T13:46:06.894Z,80.2
2018-04-01T13:47:08.504Z,79.6
2018-04-01T13:48:10.122Z,80.7
2018-04-01T13:49:11.738Z,79.9
2018-04-01T13:50:13.350Z,79.0
2018-04-01T13:51:14.972Z,79.0
2018-04-01T13:52:16.584Z,79.9
2018-04-01T13:53:18.203Z,80.9
2018-04-01T13:54:19.813Z,82.9
2018-04-01T13:55:21.430Z,81.0
2018-04-01T13:56:23.048Z,80.4